sensor_id;sensor_type;location;lat;lon;timestamp;P1;durP1;ratioP1;P2;durP2;ratioP2
20639;SDS011;10479;53.524;9.846;2022-12-13T00:02:01;90.25;;;25.70;;
20639;SDS011;10479;53.524;9.846;2022-12-13T00:04:34;92.95;;;26.27;;
20639;SDS011;10479;53.524;9.846;2022-12-13T00:06:59;74.00;;;22.90;;
20639;SDS011;10479;53.524;9.846;2022-12-13T00:09:26;86.95;;;24.65;;
20639;SDS011;10479;53.524;9.846;2022-12-13T00:11:52;91.50;;;26.08;;
20639;SDS011;10479;53.524;9.846;2022-12-13T00:14:19;85.45;;;25.45;;
20639;SDS011;10479;53.524;9.846;2022-12-13T00:17:05;78.75;;;25.10;;
20639;SDS011;10479;53.524;9.846;2022-12-13T00:19:31;95.82;;;28.23;;
20639;SDS011;10479;53.524;9.846;2022-12-13T00:22:07;83.38;;;24.88;;
20639;SDS011;10479;53.524;9.846;2022-12-13T00:24:32;94.57;;;26.13;;
20639;SDS011;10479;53.524;9.846;2022-12-13T00:26:58;81.45;;;23.55;;
20639;SDS011;10479;53.524;9.846;2022-12-13T00:29:25;78.90;;;25.02;;
20639;SDS011;10479;53.524;9.846;2022-12-13T00:31:50;75.47;;;22.65;;
20639;SDS011;10479;53.524;9.846;2022-12-13T00:34:17;80.22;;;23.27;;
20639;SDS011;10479;53.524;9.846;2022-12-13T00:36:43;84.03;;;23.73;;
20639;SDS011;10479;53.524;9.846;2022-12-13T00:39:18;69.78;;;22.40;;
20639;SDS011;10479;53.524;9.846;2022-12-13T00:41:44;67.47;;;20.70;;
20639;SDS011;10479;53.524;9.846;2022-12-13T00:44:12;77.13;;;23.52;;
20639;SDS011;10479;53.524;9.846;2022-12-13T00:46:38;80.47;;;23.67;;
20639;SDS011;10479;53.524;9.846;2022-12-13T00:49:04;74.70;;;22.85;;
20639;SDS011;10479;53.524;9.846;2022-12-13T00:51:36;64.85;;;21.95;;
20639;SDS011;10479;53.524;9.846;2022-12-13T00:54:04;79.43;;;24.15;;
20639;SDS011;10479;53.524;9.846;2022-12-13T00:56:42;88.95;;;25.55;;
20639;SDS011;10479;53.524;9.846;2022-12-13T00:59:11;101.40;;;25.20;;
20639;SDS011;10479;53.524;9.846;2022-12-13T01:01:38;102.07;;;27.92;;
20639;SDS011;10479;53.524;9.846;2022-12-13T01:04:04;91.25;;;24.65;;
20639;SDS011;10479;53.524;9.846;2022-12-13T01:06:33;76.03;;;23.08;;
20639;SDS011;10479;53.524;9.846;2022-12-13T01:09:06;88.87;;;25.10;;
20639;SDS011;10479;53.524;9.846;2022-12-13T01:11:34;85.82;;;26.85;;
20639;SDS011;10479;53.524;9.846;2022-12-13T01:14:00;92.78;;;25.42;;
20639;SDS011;10479;53.524;9.846;2022-12-13T01:16:26;99.25;;;27.83;;
20639;SDS011;10479;53.524;9.846;2022-12-13T01:18:52;77.60;;;23.27;;
20639;SDS011;10479;53.524;9.846;2022-12-13T01:21:18;70.78;;;22.80;;
20639;SDS011;10479;53.524;9.846;2022-12-13T01:24:01;67.30;;;23.05;;
20639;SDS011;10479;53.524;9.846;2022-12-13T01:26:33;78.43;;;22.50;;
20639;SDS011;10479;53.524;9.846;2022-12-13T01:28:59;76.18;;;23.70;;
20639;SDS011;10479;53.524;9.846;2022-12-13T01:31:25;87.35;;;25.50;;
20639;SDS011;10479;53.524;9.846;2022-12-13T01:33:54;80.45;;;23.50;;
20639;SDS011;10479;53.524;9.846;2022-12-13T01:36:20;80.18;;;24.60;;
20639;SDS011;10479;53.524;9.846;2022-12-13T01:38:46;83.05;;;25.65;;
20639;SDS011;10479;53.524;9.846;2022-12-13T01:41:12;77.05;;;24.20;;
20639;SDS011;10479;53.524;9.846;2022-12-13T01:46:06;102.05;;;28.92;;
20639;SDS011;10479;53.524;9.846;2022-12-13T01:48:35;95.47;;;27.85;;
20639;SDS011;10479;53.524;9.846;2022-12-13T01:51:04;103.78;;;28.48;;
20639;SDS011;10479;53.524;9.846;2022-12-13T01:53:33;85.65;;;24.75;;
20639;SDS011;10479;53.524;9.846;2022-12-13T01:56:01;69.95;;;23.20;;
20639;SDS011;10479;53.524;9.846;2022-12-13T01:58:31;85.05;;;24.40;;
20639;SDS011;10479;53.524;9.846;2022-12-13T02:00:58;79.40;;;23.23;;
20639;SDS011;10479;53.524;9.846;2022-12-13T02:03:24;70.47;;;21.50;;
20639;SDS011;10479;53.524;9.846;2022-12-13T02:08:35;92.63;;;27.02;;
20639;SDS011;10479;53.524;9.846;2022-12-13T02:13:29;69.50;;;22.00;;
20639;SDS011;10479;53.524;9.846;2022-12-13T02:27:08;101.35;;;26.40;;
20639;SDS011;10479;53.524;9.846;2022-12-13T02:32:42;95.80;;;26.10;;
20639;SDS011;10479;53.524;9.846;2022-12-13T02:35:33;100.43;;;27.92;;
20639;SDS011;10479;53.524;9.846;2022-12-13T02:38:13;89.47;;;26.75;;
20639;SDS011;10479;53.524;9.846;2022-12-13T02:40:45;90.45;;;24.38;;
20639;SDS011;10479;53.524;9.846;2022-12-13T02:43:15;85.72;;;24.70;;
20639;SDS011;10479;53.524;9.846;2022-12-13T02:45:46;94.47;;;26.67;;
20639;SDS011;10479;53.524;9.846;2022-12-13T02:48:16;84.57;;;26.02;;
20639;SDS011;10479;53.524;9.846;2022-12-13T02:50:45;83.85;;;23.92;;
20639;SDS011;10479;53.524;9.846;2022-12-13T02:53:14;79.18;;;25.55;;
20639;SDS011;10479;53.524;9.846;2022-12-13T02:55:40;87.93;;;25.05;;
20639;SDS011;10479;53.524;9.846;2022-12-13T02:58:05;90.75;;;25.98;;
20639;SDS011;10479;53.524;9.846;2022-12-13T03:08:41;81.80;;;24.02;;
20639;SDS011;10479;53.524;9.846;2022-12-13T03:11:14;70.68;;;23.70;;
20639;SDS011;10479;53.524;9.846;2022-12-13T03:16:34;79.15;;;25.15;;
20639;SDS011;10479;53.524;9.846;2022-12-13T03:19:06;91.15;;;27.77;;
20639;SDS011;10479;53.524;9.846;2022-12-13T03:21:39;83.95;;;26.58;;
20639;SDS011;10479;53.524;9.846;2022-12-13T03:24:15;103.18;;;27.52;;
20639;SDS011;10479;53.524;9.846;2022-12-13T03:26:42;92.90;;;27.48;;
20639;SDS011;10479;53.524;9.846;2022-12-13T03:29:07;92.85;;;28.63;;
20639;SDS011;10479;53.524;9.846;2022-12-13T03:31:34;108.03;;;30.55;;
20639;SDS011;10479;53.524;9.846;2022-12-13T03:34:01;107.75;;;28.73;;
20639;SDS011;10479;53.524;9.846;2022-12-13T03:45:51;110.00;;;31.50;;
20639;SDS011;10479;53.524;9.846;2022-12-13T03:48:17;114.03;;;30.70;;
20639;SDS011;10479;53.524;9.846;2022-12-13T03:50:43;112.70;;;31.95;;
20639;SDS011;10479;53.524;9.846;2022-12-13T03:53:08;118.38;;;32.70;;
20639;SDS011;10479;53.524;9.846;2022-12-13T03:55:34;112.15;;;30.98;;
20639;SDS011;10479;53.524;9.846;2022-12-13T03:58:00;101.18;;;30.30;;
20639;SDS011;10479;53.524;9.846;2022-12-13T04:00:29;95.82;;;29.83;;
20639;SDS011;10479;53.524;9.846;2022-12-13T04:02:54;101.55;;;29.58;;
20639;SDS011;10479;53.524;9.846;2022-12-13T04:05:20;93.43;;;28.27;;
20639;SDS011;10479;53.524;9.846;2022-12-13T04:07:46;105.97;;;30.58;;
20639;SDS011;10479;53.524;9.846;2022-12-13T04:10:12;95.47;;;28.58;;
20639;SDS011;10479;53.524;9.846;2022-12-13T04:12:37;101.78;;;30.02;;
20639;SDS011;10479;53.524;9.846;2022-12-13T04:15:21;98.10;;;28.77;;
20639;SDS011;10479;53.524;9.846;2022-12-13T04:17:49;109.20;;;29.48;;
20639;SDS011;10479;53.524;9.846;2022-12-13T04:20:14;101.97;;;30.50;;
20639;SDS011;10479;53.524;9.846;2022-12-13T04:22:43;87.57;;;26.30;;
20639;SDS011;10479;53.524;9.846;2022-12-13T04:25:09;113.40;;;30.20;;
20639;SDS011;10479;53.524;9.846;2022-12-13T04:27:35;104.15;;;31.33;;
20639;SDS011;10479;53.524;9.846;2022-12-13T04:30:03;104.35;;;29.85;;
20639;SDS011;10479;53.524;9.846;2022-12-13T04:32:41;86.95;;;26.08;;
20639;SDS011;10479;53.524;9.846;2022-12-13T04:35:06;101.60;;;27.27;;
20639;SDS011;10479;53.524;9.846;2022-12-13T04:37:32;97.15;;;29.58;;
20639;SDS011;10479;53.524;9.846;2022-12-13T04:39:58;92.75;;;27.33;;
20639;SDS011;10479;53.524;9.846;2022-12-13T04:42:23;105.10;;;29.73;;
20639;SDS011;10479;53.524;9.846;2022-12-13T04:44:51;90.75;;;27.92;;
20639;SDS011;10479;53.524;9.846;2022-12-13T04:47:18;103.30;;;30.33;;
20639;SDS011;10479;53.524;9.846;2022-12-13T04:49:44;97.63;;;27.90;;
20639;SDS011;10479;53.524;9.846;2022-12-13T04:52:10;90.40;;;27.58;;
20639;SDS011;10479;53.524;9.846;2022-12-13T04:54:36;93.85;;;29.75;;
20639;SDS011;10479;53.524;9.846;2022-12-13T04:57:01;109.78;;;29.42;;
20639;SDS011;10479;53.524;9.846;2022-12-13T04:59:29;91.95;;;28.55;;
20639;SDS011;10479;53.524;9.846;2022-12-13T05:01:57;100.30;;;28.60;;
20639;SDS011;10479;53.524;9.846;2022-12-13T05:04:23;107.43;;;32.00;;
20639;SDS011;10479;53.524;9.846;2022-12-13T05:06:48;91.30;;;27.23;;
20639;SDS011;10479;53.524;9.846;2022-12-13T05:09:14;100.75;;;30.77;;
20639;SDS011;10479;53.524;9.846;2022-12-13T05:11:39;105.97;;;30.70;;
20639;SDS011;10479;53.524;9.846;2022-12-13T05:14:05;111.25;;;30.25;;
20639;SDS011;10479;53.524;9.846;2022-12-13T05:16:32;100.05;;;29.38;;
20639;SDS011;10479;53.524;9.846;2022-12-13T05:18:58;97.70;;;28.50;;
20639;SDS011;10479;53.524;9.846;2022-12-13T05:21:25;113.05;;;30.88;;
20639;SDS011;10479;53.524;9.846;2022-12-13T05:23:51;118.65;;;32.80;;
20639;SDS011;10479;53.524;9.846;2022-12-13T05:26:17;105.93;;;29.50;;
20639;SDS011;10479;53.524;9.846;2022-12-13T05:28:42;108.82;;;30.88;;
20639;SDS011;10479;53.524;9.846;2022-12-13T05:31:08;114.20;;;30.63;;
20639;SDS011;10479;53.524;9.846;2022-12-13T05:33:36;97.13;;;28.25;;
20639;SDS011;10479;53.524;9.846;2022-12-13T05:36:02;99.85;;;28.70;;
20639;SDS011;10479;53.524;9.846;2022-12-13T05:38:29;107.20;;;30.23;;
20639;SDS011;10479;53.524;9.846;2022-12-13T05:40:55;108.68;;;29.90;;
20639;SDS011;10479;53.524;9.846;2022-12-13T05:43:22;87.82;;;26.88;;
20639;SDS011;10479;53.524;9.846;2022-12-13T05:45:48;99.13;;;28.50;;
20639;SDS011;10479;53.524;9.846;2022-12-13T05:48:14;110.53;;;30.58;;
20639;SDS011;10479;53.524;9.846;2022-12-13T05:50:40;100.20;;;28.25;;
20639;SDS011;10479;53.524;9.846;2022-12-13T05:53:08;105.78;;;30.58;;
20639;SDS011;10479;53.524;9.846;2022-12-13T05:55:35;93.07;;;27.45;;
20639;SDS011;10479;53.524;9.846;2022-12-13T05:58:01;86.75;;;27.52;;
20639;SDS011;10479;53.524;9.846;2022-12-13T06:00:27;91.97;;;28.52;;
20639;SDS011;10479;53.524;9.846;2022-12-13T06:02:53;104.57;;;29.65;;
20639;SDS011;10479;53.524;9.846;2022-12-13T06:05:22;116.45;;;30.75;;
20639;SDS011;10479;53.524;9.846;2022-12-13T06:07:48;93.93;;;28.27;;
20639;SDS011;10479;53.524;9.846;2022-12-13T06:10:16;94.22;;;27.67;;
20639;SDS011;10479;53.524;9.846;2022-12-13T06:12:41;96.80;;;28.25;;
20639;SDS011;10479;53.524;9.846;2022-12-13T06:15:07;98.63;;;29.67;;
20639;SDS011;10479;53.524;9.846;2022-12-13T06:17:34;111.70;;;30.85;;
20639;SDS011;10479;53.524;9.846;2022-12-13T06:20:00;93.38;;;28.05;;
20639;SDS011;10479;53.524;9.846;2022-12-13T06:22:38;84.20;;;25.85;;
20639;SDS011;10479;53.524;9.846;2022-12-13T06:25:03;104.00;;;28.95;;
20639;SDS011;10479;53.524;9.846;2022-12-13T06:27:32;99.60;;;28.75;;
20639;SDS011;10479;53.524;9.846;2022-12-13T06:29:58;98.25;;;29.42;;
20639;SDS011;10479;53.524;9.846;2022-12-13T06:32:23;102.65;;;30.13;;
20639;SDS011;10479;53.524;9.846;2022-12-13T06:34:52;100.90;;;29.70;;
20639;SDS011;10479;53.524;9.846;2022-12-13T06:37:18;102.20;;;28.65;;
20639;SDS011;10479;53.524;9.846;2022-12-13T06:39:45;95.20;;;29.23;;
20639;SDS011;10479;53.524;9.846;2022-12-13T06:42:15;103.88;;;28.52;;
20639;SDS011;10479;53.524;9.846;2022-12-13T06:44:42;91.75;;;29.00;;
20639;SDS011;10479;53.524;9.846;2022-12-13T06:47:08;107.72;;;30.25;;
20639;SDS011;10479;53.524;9.846;2022-12-13T06:49:34;104.63;;;30.45;;
20639;SDS011;10479;53.524;9.846;2022-12-13T06:52:00;90.10;;;29.15;;
20639;SDS011;10479;53.524;9.846;2022-12-13T06:54:25;88.85;;;27.85;;
20639;SDS011;10479;53.524;9.846;2022-12-13T06:56:51;93.72;;;27.10;;
20639;SDS011;10479;53.524;9.846;2022-12-13T06:59:17;87.32;;;25.67;;
20639;SDS011;10479;53.524;9.846;2022-12-13T07:01:43;87.55;;;27.58;;
20639;SDS011;10479;53.524;9.846;2022-12-13T07:04:13;102.45;;;28.83;;
20639;SDS011;10479;53.524;9.846;2022-12-13T07:06:41;100.00;;;29.73;;
20639;SDS011;10479;53.524;9.846;2022-12-13T07:09:10;100.68;;;29.92;;
20639;SDS011;10479;53.524;9.846;2022-12-13T07:11:36;90.57;;;28.02;;
20639;SDS011;10479;53.524;9.846;2022-12-13T07:14:02;101.43;;;29.63;;
20639;SDS011;10479;53.524;9.846;2022-12-13T07:16:28;106.95;;;31.45;;
20639;SDS011;10479;53.524;9.846;2022-12-13T07:18:55;102.18;;;30.85;;
20639;SDS011;10479;53.524;9.846;2022-12-13T07:21:21;95.13;;;28.65;;
20639;SDS011;10479;53.524;9.846;2022-12-13T07:23:48;102.00;;;29.20;;
20639;SDS011;10479;53.524;9.846;2022-12-13T07:26:14;104.70;;;29.25;;
20639;SDS011;10479;53.524;9.846;2022-12-13T07:28:40;92.03;;;27.77;;
20639;SDS011;10479;53.524;9.846;2022-12-13T07:31:07;101.63;;;29.08;;
20639;SDS011;10479;53.524;9.846;2022-12-13T07:33:35;95.72;;;28.52;;
20639;SDS011;10479;53.524;9.846;2022-12-13T07:36:10;91.60;;;27.35;;
20639;SDS011;10479;53.524;9.846;2022-12-13T07:38:38;94.75;;;27.85;;
20639;SDS011;10479;53.524;9.846;2022-12-13T07:41:18;99.07;;;27.73;;
20639;SDS011;10479;53.524;9.846;2022-12-13T07:43:44;83.65;;;27.83;;
20639;SDS011;10479;53.524;9.846;2022-12-13T07:46:10;91.18;;;27.35;;
20639;SDS011;10479;53.524;9.846;2022-12-13T07:48:36;93.90;;;28.65;;
20639;SDS011;10479;53.524;9.846;2022-12-13T07:51:03;79.82;;;26.80;;
20639;SDS011;10479;53.524;9.846;2022-12-13T07:53:31;83.53;;;26.35;;
20639;SDS011;10479;53.524;9.846;2022-12-13T07:56:01;87.57;;;26.20;;
20639;SDS011;10479;53.524;9.846;2022-12-13T07:58:31;93.90;;;27.63;;
20639;SDS011;10479;53.524;9.846;2022-12-13T08:01:02;87.32;;;26.90;;
20639;SDS011;10479;53.524;9.846;2022-12-13T08:03:32;82.78;;;25.25;;
20639;SDS011;10479;53.524;9.846;2022-12-13T08:06:02;93.78;;;28.17;;
20639;SDS011;10479;53.524;9.846;2022-12-13T08:08:35;86.38;;;27.08;;
20639;SDS011;10479;53.524;9.846;2022-12-13T08:11:08;87.22;;;25.67;;
20639;SDS011;10479;53.524;9.846;2022-12-13T08:13:36;88.00;;;27.55;;
20639;SDS011;10479;53.524;9.846;2022-12-13T08:16:04;98.22;;;27.77;;
20639;SDS011;10479;53.524;9.846;2022-12-13T08:18:33;93.30;;;27.02;;
20639;SDS011;10479;53.524;9.846;2022-12-13T08:21:02;73.85;;;24.42;;
20639;SDS011;10479;53.524;9.846;2022-12-13T08:23:32;86.30;;;26.45;;
20639;SDS011;10479;53.524;9.846;2022-12-13T08:25:58;92.20;;;26.77;;
20639;SDS011;10479;53.524;9.846;2022-12-13T08:28:26;80.50;;;24.88;;
20639;SDS011;10479;53.524;9.846;2022-12-13T08:30:52;87.75;;;26.33;;
20639;SDS011;10479;53.524;9.846;2022-12-13T08:33:19;88.72;;;25.63;;
20639;SDS011;10479;53.524;9.846;2022-12-13T08:35:45;80.80;;;24.98;;
20639;SDS011;10479;53.524;9.846;2022-12-13T08:38:23;77.00;;;24.23;;
20639;SDS011;10479;53.524;9.846;2022-12-13T08:40:49;81.63;;;25.73;;
20639;SDS011;10479;53.524;9.846;2022-12-13T08:43:15;86.07;;;26.38;;
20639;SDS011;10479;53.524;9.846;2022-12-13T08:45:42;99.75;;;26.35;;
20639;SDS011;10479;53.524;9.846;2022-12-13T08:48:09;84.88;;;25.15;;
20639;SDS011;10479;53.524;9.846;2022-12-13T08:50:35;86.72;;;25.50;;
20639;SDS011;10479;53.524;9.846;2022-12-13T08:53:02;79.75;;;26.02;;
20639;SDS011;10479;53.524;9.846;2022-12-13T08:55:27;81.82;;;24.80;;
20639;SDS011;10479;53.524;9.846;2022-12-13T08:57:53;83.55;;;25.33;;
20639;SDS011;10479;53.524;9.846;2022-12-13T09:00:20;73.53;;;25.33;;
20639;SDS011;10479;53.524;9.846;2022-12-13T09:02:46;69.25;;;24.00;;
20639;SDS011;10479;53.524;9.846;2022-12-13T09:05:12;71.63;;;23.75;;
20639;SDS011;10479;53.524;9.846;2022-12-13T09:07:39;65.40;;;22.63;;
20639;SDS011;10479;53.524;9.846;2022-12-13T09:10:07;65.82;;;21.30;;
20639;SDS011;10479;53.524;9.846;2022-12-13T09:12:39;57.97;;;21.70;;
20639;SDS011;10479;53.524;9.846;2022-12-13T09:15:06;77.35;;;24.08;;
20639;SDS011;10479;53.524;9.846;2022-12-13T09:17:37;67.28;;;21.17;;
20639;SDS011;10479;53.524;9.846;2022-12-13T09:20:04;59.65;;;20.75;;
20639;SDS011;10479;53.524;9.846;2022-12-13T09:22:32;53.13;;;19.13;;
20639;SDS011;10479;53.524;9.846;2022-12-13T09:24:58;55.05;;;19.55;;
20639;SDS011;10479;53.524;9.846;2022-12-13T09:27:24;61.72;;;20.90;;
20639;SDS011;10479;53.524;9.846;2022-12-13T09:29:50;52.50;;;19.27;;
20639;SDS011;10479;53.524;9.846;2022-12-13T09:32:18;47.40;;;16.92;;
20639;SDS011;10479;53.524;9.846;2022-12-13T09:34:45;46.78;;;16.55;;
20639;SDS011;10479;53.524;9.846;2022-12-13T09:37:11;55.55;;;18.58;;
20639;SDS011;10479;53.524;9.846;2022-12-13T09:39:38;47.22;;;16.35;;
20639;SDS011;10479;53.524;9.846;2022-12-13T09:42:05;41.35;;;16.27;;
20639;SDS011;10479;53.524;9.846;2022-12-13T09:44:37;44.05;;;15.95;;
20639;SDS011;10479;53.524;9.846;2022-12-13T09:47:05;43.20;;;16.10;;
20639;SDS011;10479;53.524;9.846;2022-12-13T09:49:37;44.45;;;15.85;;
20639;SDS011;10479;53.524;9.846;2022-12-13T09:52:05;48.58;;;15.85;;
20639;SDS011;10479;53.524;9.846;2022-12-13T09:54:31;45.28;;;16.38;;
20639;SDS011;10479;53.524;9.846;2022-12-13T09:57:00;48.28;;;16.95;;
20639;SDS011;10479;53.524;9.846;2022-12-13T09:59:34;39.92;;;13.88;;
20639;SDS011;10479;53.524;9.846;2022-12-13T10:02:16;44.70;;;16.20;;
20639;SDS011;10479;53.524;9.846;2022-12-13T10:07:58;43.10;;;15.00;;
20639;SDS011;10479;53.524;9.846;2022-12-13T10:10:26;31.77;;;12.75;;
20639;SDS011;10479;53.524;9.846;2022-12-13T10:15:58;39.42;;;13.75;;
20639;SDS011;10479;53.524;9.846;2022-12-13T10:18:32;44.17;;;14.45;;
20639;SDS011;10479;53.524;9.846;2022-12-13T10:21:00;39.85;;;15.18;;
20639;SDS011;10479;53.524;9.846;2022-12-13T10:23:36;43.65;;;15.10;;
20639;SDS011;10479;53.524;9.846;2022-12-13T10:26:02;41.20;;;15.82;;
20639;SDS011;10479;53.524;9.846;2022-12-13T10:28:34;39.92;;;15.25;;
20639;SDS011;10479;53.524;9.846;2022-12-13T10:31:01;42.08;;;15.18;;
20639;SDS011;10479;53.524;9.846;2022-12-13T10:33:36;42.13;;;16.65;;
20639;SDS011;10479;53.524;9.846;2022-12-13T10:36:15;47.17;;;16.45;;
20639;SDS011;10479;53.524;9.846;2022-12-13T10:38:55;45.55;;;17.48;;
20639;SDS011;10479;53.524;9.846;2022-12-13T10:41:26;44.92;;;17.52;;
20639;SDS011;10479;53.524;9.846;2022-12-13T10:50:15;52.47;;;18.58;;
20639;SDS011;10479;53.524;9.846;2022-12-13T10:54:53;49.42;;;18.00;;
20639;SDS011;10479;53.524;9.846;2022-12-13T10:57:20;50.00;;;18.58;;
20639;SDS011;10479;53.524;9.846;2022-12-13T10:59:47;44.80;;;17.55;;
20639;SDS011;10479;53.524;9.846;2022-12-13T11:02:34;49.92;;;17.45;;
20639;SDS011;10479;53.524;9.846;2022-12-13T11:05:24;48.42;;;17.08;;
20639;SDS011;10479;53.524;9.846;2022-12-13T11:07:52;48.95;;;18.50;;
20639;SDS011;10479;53.524;9.846;2022-12-13T11:10:22;56.55;;;18.85;;
20639;SDS011;10479;53.524;9.846;2022-12-13T11:12:58;43.22;;;16.42;;
20639;SDS011;10479;53.524;9.846;2022-12-13T11:15:36;46.53;;;17.33;;
20639;SDS011;10479;53.524;9.846;2022-12-13T11:18:04;46.13;;;17.42;;
20639;SDS011;10479;53.524;9.846;2022-12-13T11:20:33;47.00;;;17.40;;
20639;SDS011;10479;53.524;9.846;2022-12-13T11:23:05;48.05;;;17.92;;
20639;SDS011;10479;53.524;9.846;2022-12-13T11:25:38;44.08;;;16.30;;
20639;SDS011;10479;53.524;9.846;2022-12-13T11:33:17;38.13;;;15.02;;
20639;SDS011;10479;53.524;9.846;2022-12-13T11:41:40;37.25;;;13.73;;
20639;SDS011;10479;53.524;9.846;2022-12-13T11:46:43;38.58;;;14.73;;
20639;SDS011;10479;53.524;9.846;2022-12-13T11:49:15;40.05;;;14.55;;
20639;SDS011;10479;53.524;9.846;2022-12-13T11:52:03;37.67;;;15.90;;
20639;SDS011;10479;53.524;9.846;2022-12-13T11:54:48;40.95;;;14.95;;
20639;SDS011;10479;53.524;9.846;2022-12-13T12:02:48;37.80;;;13.25;;
20639;SDS011;10479;53.524;9.846;2022-12-13T12:05:36;40.72;;;14.95;;
20639;SDS011;10479;53.524;9.846;2022-12-13T12:14:26;42.92;;;16.48;;
20639;SDS011;10479;53.524;9.846;2022-12-13T12:16:55;44.40;;;17.40;;
20639;SDS011;10479;53.524;9.846;2022-12-13T12:19:23;39.95;;;17.35;;
20639;SDS011;10479;53.524;9.846;2022-12-13T12:21:58;45.75;;;18.15;;
20639;SDS011;10479;53.524;9.846;2022-12-13T12:32:48;48.80;;;16.17;;
20639;SDS011;10479;53.524;9.846;2022-12-13T12:43:06;46.65;;;19.40;;
20639;SDS011;10479;53.524;9.846;2022-12-13T12:51:06;56.35;;;21.33;;
20639;SDS011;10479;53.524;9.846;2022-12-13T12:53:40;52.35;;;19.60;;
20639;SDS011;10479;53.524;9.846;2022-12-13T12:58:54;54.15;;;20.83;;
20639;SDS011;10479;53.524;9.846;2022-12-13T13:04:36;62.07;;;22.37;;
20639;SDS011;10479;53.524;9.846;2022-12-13T13:07:11;60.60;;;23.38;;
20639;SDS011;10479;53.524;9.846;2022-12-13T13:09:40;61.35;;;24.05;;
20639;SDS011;10479;53.524;9.846;2022-12-13T13:12:06;64.32;;;24.88;;
20639;SDS011;10479;53.524;9.846;2022-12-13T13:17:43;66.82;;;24.65;;
20639;SDS011;10479;53.524;9.846;2022-12-13T13:22:32;65.53;;;25.92;;
20639;SDS011;10479;53.524;9.846;2022-12-13T13:27:50;64.75;;;25.63;;
20639;SDS011;10479;53.524;9.846;2022-12-13T13:30:20;65.60;;;24.85;;
20639;SDS011;10479;53.524;9.846;2022-12-13T13:32:49;64.95;;;25.33;;
20639;SDS011;10479;53.524;9.846;2022-12-13T13:40:47;73.00;;;26.77;;
20639;SDS011;10479;53.524;9.846;2022-12-13T13:43:13;72.50;;;25.85;;
20639;SDS011;10479;53.524;9.846;2022-12-13T13:54:43;61.90;;;25.20;;
20639;SDS011;10479;53.524;9.846;2022-12-13T13:57:21;70.38;;;25.98;;
20639;SDS011;10479;53.524;9.846;2022-12-13T14:03:13;80.45;;;27.42;;
20639;SDS011;10479;53.524;9.846;2022-12-13T14:20:08;77.00;;;27.30;;
20639;SDS011;10479;53.524;9.846;2022-12-13T14:22:54;75.78;;;26.48;;
20639;SDS011;10479;53.524;9.846;2022-12-13T14:31:03;79.03;;;26.23;;
20639;SDS011;10479;53.524;9.846;2022-12-13T14:33:41;80.97;;;28.52;;
20639;SDS011;10479;53.524;9.846;2022-12-13T14:36:10;80.00;;;27.58;;
20639;SDS011;10479;53.524;9.846;2022-12-13T14:38:40;78.22;;;28.58;;
20639;SDS011;10479;53.524;9.846;2022-12-13T14:41:12;76.15;;;26.95;;
20639;SDS011;10479;53.524;9.846;2022-12-13T14:43:41;85.80;;;30.13;;
20639;SDS011;10479;53.524;9.846;2022-12-13T14:46:07;86.50;;;28.55;;
20639;SDS011;10479;53.524;9.846;2022-12-13T14:48:54;92.38;;;29.30;;
20639;SDS011;10479;53.524;9.846;2022-12-13T14:51:25;90.35;;;30.17;;
20639;SDS011;10479;53.524;9.846;2022-12-13T14:53:53;87.28;;;28.30;;
20639;SDS011;10479;53.524;9.846;2022-12-13T14:56:19;91.70;;;29.25;;
20639;SDS011;10479;53.524;9.846;2022-12-13T14:58:58;89.88;;;30.15;;
20639;SDS011;10479;53.524;9.846;2022-12-13T15:01:27;85.80;;;28.65;;
20639;SDS011;10479;53.524;9.846;2022-12-13T15:07:12;94.70;;;33.17;;
20639;SDS011;10479;53.524;9.846;2022-12-13T15:09:39;89.05;;;29.95;;
20639;SDS011;10479;53.524;9.846;2022-12-13T15:12:07;96.22;;;31.63;;
20639;SDS011;10479;53.524;9.846;2022-12-13T15:14:38;97.45;;;32.70;;
20639;SDS011;10479;53.524;9.846;2022-12-13T15:17:10;102.47;;;33.45;;
20639;SDS011;10479;53.524;9.846;2022-12-13T15:19:50;100.65;;;31.73;;
20639;SDS011;10479;53.524;9.846;2022-12-13T15:22:18;103.25;;;33.10;;
20639;SDS011;10479;53.524;9.846;2022-12-13T15:24:44;98.03;;;32.92;;
20639;SDS011;10479;53.524;9.846;2022-12-13T15:27:14;110.15;;;33.03;;
20639;SDS011;10479;53.524;9.846;2022-12-13T15:29:41;103.82;;;33.67;;
20639;SDS011;10479;53.524;9.846;2022-12-13T15:32:13;104.03;;;30.70;;
20639;SDS011;10479;53.524;9.846;2022-12-13T15:34:44;112.80;;;33.90;;
20639;SDS011;10479;53.524;9.846;2022-12-13T15:37:15;110.95;;;33.70;;
20639;SDS011;10479;53.524;9.846;2022-12-13T15:39:53;118.40;;;35.20;;
20639;SDS011;10479;53.524;9.846;2022-12-13T15:42:22;112.85;;;34.25;;
20639;SDS011;10479;53.524;9.846;2022-12-13T15:44:52;118.13;;;36.70;;
20639;SDS011;10479;53.524;9.846;2022-12-13T15:47:19;120.28;;;35.45;;
20639;SDS011;10479;53.524;9.846;2022-12-13T15:52:30;127.50;;;36.95;;
20639;SDS011;10479;53.524;9.846;2022-12-13T15:57:32;138.82;;;37.42;;
20639;SDS011;10479;53.524;9.846;2022-12-13T16:00:22;143.80;;;37.67;;
20639;SDS011;10479;53.524;9.846;2022-12-13T16:05:55;135.35;;;35.30;;
20639;SDS011;10479;53.524;9.846;2022-12-13T16:10:56;132.05;;;35.97;;
20639;SDS011;10479;53.524;9.846;2022-12-13T16:13:23;130.65;;;34.53;;
20639;SDS011;10479;53.524;9.846;2022-12-13T16:15:53;122.40;;;34.67;;
20639;SDS011;10479;53.524;9.846;2022-12-13T16:18:22;130.18;;;37.03;;
20639;SDS011;10479;53.524;9.846;2022-12-13T16:20:52;139.45;;;36.78;;
20639;SDS011;10479;53.524;9.846;2022-12-13T16:23:18;139.05;;;39.05;;
20639;SDS011;10479;53.524;9.846;2022-12-13T16:25:54;140.02;;;38.65;;
20639;SDS011;10479;53.524;9.846;2022-12-13T16:28:20;153.70;;;40.88;;
20639;SDS011;10479;53.524;9.846;2022-12-13T16:33:31;158.10;;;38.83;;
20639;SDS011;10479;53.524;9.846;2022-12-13T16:35:59;147.10;;;37.08;;
20639;SDS011;10479;53.524;9.846;2022-12-13T16:38:26;143.90;;;36.47;;
20639;SDS011;10479;53.524;9.846;2022-12-13T16:40:54;152.80;;;37.63;;
20639;SDS011;10479;53.524;9.846;2022-12-13T16:43:21;147.45;;;37.42;;
20639;SDS011;10479;53.524;9.846;2022-12-13T16:45:49;135.60;;;34.10;;
20639;SDS011;10479;53.524;9.846;2022-12-13T16:48:16;140.80;;;35.55;;
20639;SDS011;10479;53.524;9.846;2022-12-13T16:50:44;152.85;;;37.00;;
20639;SDS011;10479;53.524;9.846;2022-12-13T16:53:11;171.75;;;42.35;;
20639;SDS011;10479;53.524;9.846;2022-12-13T16:55:43;137.90;;;34.90;;
20639;SDS011;10479;53.524;9.846;2022-12-13T16:58:14;160.70;;;37.00;;
20639;SDS011;10479;53.524;9.846;2022-12-13T17:00:41;151.57;;;37.17;;
20639;SDS011;10479;53.524;9.846;2022-12-13T17:03:10;143.60;;;36.25;;
20639;SDS011;10479;53.524;9.846;2022-12-13T17:05:38;170.60;;;38.25;;
20639;SDS011;10479;53.524;9.846;2022-12-13T17:08:05;151.30;;;36.22;;
20639;SDS011;10479;53.524;9.846;2022-12-13T17:10:35;143.57;;;36.50;;
20639;SDS011;10479;53.524;9.846;2022-12-13T17:13:01;155.18;;;37.40;;
20639;SDS011;10479;53.524;9.846;2022-12-13T17:15:27;148.25;;;38.47;;
20639;SDS011;10479;53.524;9.846;2022-12-13T17:17:55;160.05;;;38.90;;
20639;SDS011;10479;53.524;9.846;2022-12-13T17:20:21;178.18;;;44.30;;
20639;SDS011;10479;53.524;9.846;2022-12-13T17:22:47;156.77;;;37.10;;